Latest Weather Observations for Port Augusta

IDS60801

Issued at 10:31 am CDT Monday 2 February 2015 (issued every 30 minutes, with the page automatically refreshed every 10 minutes)

About weather observations | Map of weather stations | Latest weather observations for SA | Other Formats
Station Details ID: 018201 Name: PORT AUGUSTA AERO Lat: -32.51 Lon: 137.72 Height: 13.97 m
Data from the previous 72 hours. | See also: Recent months at Port Augusta
Date/Time
CDT
Temp
°C
App
Temp
°C
Dew
Point
Rel
Hum
%
Delta-T
°C
Wind Press
QNH
hPa
Press
MSL
hPa
Rain
since 9 am
mm
Dir
 
Spd
km/h
Gust
km/h
Spd
kts
Gust
kts
02/10:30am 18.7 10.2 8.4 51 5.3 SSE 43 54 23 29 1021.3 - 0.0
02/10:00am 18.3 10.1 8.3 52 5.1 SSE 41 54 22 29 1021.3 - 0.0
02/09:31am 18.0 10.6 8.3 53 5.0 SSE 37 56 20 30 1021.0 - 0.0
02/09:30am 18.1 11.5 8.4 53 5.0 SSE 33 48 18 26 1021.1 - 0.0
02/09:00am 16.9 9.8 8.1 56 4.5 SSE 35 48 19 26 1020.8 1020.7 0.0
02/08:30am 16.8 10.1 8.0 56 4.4 SSE 33 43 18 23 1021.0 - 0.0
02/08:00am 16.1 9.6 8.3 60 4.0 SSE 32 43 17 23 1020.5 - 0.0
02/07:30am 15.9 10.3 8.9 63 3.6 SE 28 35 15 19 1019.9 - 0.0
02/07:00am 15.5 9.9 8.7 64 3.5 SSE 28 33 15 18 1019.6 - 0.0
02/06:30am 14.9 10.5 9.1 68 3.0 SE 22 30 12 16 1019.2 - 0.0
02/06:00am 15.0 9.8 8.9 67 3.1 SE 26 33 14 18 1018.8 1018.7 0.0
02/05:30am 15.4 8.1 8.9 65 3.3 SSE 37 50 20 27 1018.6 - 0.0
02/05:00am 15.5 7.9 9.0 65 3.3 SSE 39 48 21 26 1018.5 - 0.0
02/04:30am 15.6 8.8 9.1 65 3.3 SSE 35 48 19 26 1018.4 - 0.0
02/04:00am 15.7 9.2 8.9 64 3.5 SSE 33 50 18 27 1018.3 - 0.0
02/03:30am 16.0 9.7 9.7 66 3.3 SSE 33 46 18 25 1018.1 - 0.0
02/03:00am 16.3 9.5 9.3 63 3.6 SSE 35 54 19 29 1018.2 1018.1 0.0
02/02:58am 16.3 9.5 9.3 63 3.6 SSE 35 54 19 29 1018.3 - 0.0
02/02:30am 17.0 9.0 8.9 59 4.2 S 41 52 22 28 1018.4 - 0.0
02/02:00am 17.3 10.5 9.2 59 4.2 SSE 35 46 19 25 1018.4 - 0.0
02/01:30am 17.6 10.9 9.5 59 4.2 SSE 35 48 19 26 1018.6 - 0.0
02/01:00am 17.8 11.6 9.9 60 4.2 S 33 44 18 24 1018.6 - 0.0
02/12:30am 17.6 10.6 9.8 60 4.1 SSE 37 46 20 25 1018.7 - 0.0
02/12:00am 17.5 10.7 10.6 64 3.7 S 37 50 20 27 1018.8 1018.7 0.0
 
Date/Time
CDT
Temp
°C
App
Temp
°C
Dew
Point
Rel
Hum
%
Delta-T
°C
Wind Press
QNH
hPa
Press
MSL
hPa
Rain
since 9 am
mm
Dir
 
Spd
km/h
Gust
km/h
Spd
kts
Gust
kts
01/11:30pm 17.4 12.7 10.5 64 3.7 S 26 43 14 23 1019.1 - 0.0
01/11:00pm 17.9 11.7 10.0 60 4.2 S 33 46 18 25 1018.7 - 0.0
01/10:30pm 18.1 10.5 9.2 56 4.7 S 39 52 21 28 1018.6 - 0.0
01/10:17pm 18.4 11.7 9.5 56 4.7 S 35 54 19 29 1018.3 - 0.0
01/10:00pm 18.8 12.4 9.3 54 5.0 S 33 46 18 25 1018.2 - 0.0
01/09:39pm 19.1 12.6 10.4 57 4.7 S 35 54 19 29 1017.9 - 0.0
01/09:30pm 19.0 13.7 11.3 61 4.2 S 30 41 16 22 1017.9 - 0.0
01/09:00pm 19.2 13.4 11.5 61 4.2 S 33 52 18 28 1017.8 1017.7 0.0
01/08:58pm 19.2 13.4 11.5 61 4.2 S 33 52 18 28 1017.8 - 0.0
01/08:30pm 19.5 13.6 11.3 59 4.5 S 33 46 18 25 1017.3 - 0.0
01/08:00pm 20.4 13.8 11.3 56 5.0 S 37 52 20 28 1017.1 - 0.0
01/07:46pm 20.8 14.5 11.2 54 5.3 S 35 54 19 29 1016.8 - 0.0
01/07:30pm 21.6 15.9 11.0 51 5.8 S 32 43 17 23 1016.7 - 0.0
01/07:00pm 22.4 15.9 10.5 47 6.5 S 35 44 19 24 1016.4 - 0.0
01/06:30pm 23.3 17.3 10.7 45 7.0 S 33 46 18 25 1016.3 - 0.0
01/06:00pm 23.4 17.0 10.8 45 7.0 S 35 52 19 28 1016.1 1016.0 0.0
01/05:30pm 24.2 17.1 10.8 43 7.5 S 39 48 21 26 1016.0 - 0.0
01/05:16pm 24.5 17.2 11.5 44 7.3 S 41 59 22 32 1016.0 - 0.0
01/05:00pm 24.5 16.6 10.8 42 7.6 S 43 54 23 29 1015.9 - 0.0
01/04:30pm 24.9 18.1 11.8 44 7.4 S 39 57 21 31 1015.8 - 0.0
01/04:26pm 25.9 19.0 11.6 40 8.1 S 39 57 21 31 1015.9 - 0.0
01/04:00pm 25.4 19.1 11.2 41 8.0 S 35 50 19 27 1015.8 - 0.0
01/03:39pm 25.5 18.7 10.5 39 8.4 S 37 56 20 30 1015.6 - 0.0
01/03:30pm 25.8 19.2 11.2 40 8.3 S 37 54 20 29 1015.8 - 0.0
01/03:00pm 26.0 19.3 11.0 39 8.5 S 37 57 20 31 1015.6 1015.5 0.0
01/02:39pm 25.0 18.0 10.1 39 8.2 SSE 37 59 20 32 1015.7 - 0.0
01/02:30pm 25.0 18.1 8.9 36 8.7 S 35 48 19 26 1015.9 - 0.0
01/02:14pm 24.4 16.5 8.0 35 8.7 SSE 39 50 21 27 1015.9 - 0.0
01/02:00pm 24.8 17.5 8.7 36 8.7 S 37 52 20 28 1016.1 - 0.0
01/01:40pm 24.2 17.1 9.4 39 8.0 SSE 37 56 20 30 1016.0 - 0.0
01/01:30pm 24.8 17.7 9.5 38 8.4 SSE 37 48 20 26 1016.2 - 0.0
01/01:00pm 24.6 18.2 9.3 38 8.3 S 33 46 18 25 1016.6 - 0.0
01/12:30pm 22.7 15.9 7.7 38 7.8 SSE 33 46 18 25 1016.9 - 0.0
01/12:00pm 22.4 15.7 8.1 40 7.5 SSE 33 43 18 23 1017.2 1017.1 0.0
01/11:30am 22.0 15.4 7.8 40 7.4 SSE 32 43 17 23 1017.3 - 0.0
01/11:00am 20.9 14.4 8.9 46 6.3 SSE 33 44 18 24 1017.5 - 0.0
01/10:30am 20.4 13.2 9.3 49 5.9 SSE 37 48 20 26 1017.6 - 0.0
01/10:00am 18.9 11.3 9.1 53 5.1 SSE 39 48 21 26 1017.3 - 0.0
01/09:30am 18.0 10.3 8.8 55 4.8 SSE 39 48 21 26 1017.1 - 0.0
01/09:00am 17.9 9.7 9.8 59 4.3 SSE 43 52 23 28 1016.8 1016.7 0.0
01/08:30am 17.2 9.8 9.9 62 3.8 SSE 39 50 21 27 1016.5 - 0.0
01/08:00am 16.6 9.6 9.8 64 3.6 SSE 37 50 20 27 1016.2 - 0.0
01/07:30am 16.0 9.3 9.7 66 3.3 S 35 48 19 26 1015.8 - 0.0
01/07:00am 15.3 9.2 9.9 70 2.8 S 32 43 17 23 1015.5 - 0.0
01/06:30am 15.3 8.3 9.9 70 2.8 S 37 50 20 27 1014.9 - 0.0
01/06:00am 15.4 8.4 10.0 70 2.8 S 37 46 20 25 1014.7 1014.6 0.0
01/05:30am 15.4 8.4 10.0 70 2.8 S 37 46 20 25 1014.5 - 0.0
01/05:00am 15.5 9.3 10.1 70 2.8 S 33 46 18 25 1014.5 - 0.0
01/04:30am 15.8 9.3 10.3 70 2.9 S 35 46 19 25 1014.3 - 0.0
01/04:00am 16.1 10.2 10.4 69 3.0 SSE 32 44 17 24 1014.0 - 0.0
01/03:30am 16.3 11.1 10.4 68 3.1 S 28 35 15 19 1014.1 - 0.0
01/03:00am 16.7 11.6 10.5 67 3.3 S 28 39 15 21 1014.2 1014.1 0.0
01/02:30am 17.0 11.9 10.6 66 3.4 S 28 35 15 19 1014.2 - 0.0
01/02:00am 17.3 11.8 10.7 65 3.5 S 30 43 16 23 1014.3 - 0.0
01/01:30am 17.6 11.8 10.7 64 3.7 S 32 39 17 21 1014.5 - 0.0
01/01:00am 17.9 11.9 10.8 63 3.8 S 33 44 18 24 1014.7 - 0.0
01/12:30am 18.1 11.8 11.2 64 3.7 S 35 44 19 24 1014.8 - 0.0
01/12:00am 18.1 11.9 11.4 65 3.6 S 35 44 19 24 1015.0 1014.9 0.0
 
Date/Time
CDT
Temp
°C
App
Temp
°C
Dew
Point
Rel
Hum
%
Delta-T
°C
Wind Press
QNH
hPa
Press
MSL
hPa
Rain
since 9 am
mm
Dir
 
Spd
km/h
Gust
km/h
Spd
kts
Gust
kts
31/11:30pm 18.4 12.6 11.5 64 3.8 S 33 43 18 23 1015.0 - 0.0
31/11:00pm 18.8 12.5 10.9 60 4.3 S 35 48 19 26 1014.9 - 0.0
31/10:30pm 19.2 12.7 10.2 56 4.8 S 35 46 19 25 1014.9 - 0.0
31/10:00pm 19.9 13.4 10.3 54 5.2 S 35 44 19 24 1014.8 - 0.0
31/09:30pm 20.7 13.9 10.5 52 5.5 S 37 46 20 25 1014.1 - 0.0
31/09:00pm 21.1 14.9 11.4 54 5.4 S 35 44 19 24 1013.7 1013.6 0.0
31/08:30pm 21.4 15.6 11.4 53 5.5 S 33 43 18 23 1013.6 - 0.0
31/08:00pm 22.3 15.0 10.1 46 6.6 S 39 48 21 26 1013.2 - 0.0
31/07:30pm 23.6 16.4 9.2 40 7.8 S 37 48 20 26 1012.7 - 0.0
31/07:00pm 24.4 16.9 8.0 35 8.7 S 37 48 20 26 1012.4 - 0.0
31/06:30pm 25.6 18.6 6.7 30 9.9 S 33 46 18 25 1012.4 - 0.0
31/06:00pm 26.7 19.4 4.5 24 11.2 SSE 32 43 17 23 1012.1 1012.0 0.0
31/05:30pm 27.2 20.0 3.0 21 11.9 S 30 43 16 23 1012.1 - 0.0
31/05:00pm 28.2 21.4 5.1 23 11.9 S 30 43 16 23 1012.1 - 0.0
31/04:30pm 29.1 23.0 4.6 21 12.6 S 26 37 14 20 1011.8 - 0.0
31/04:00pm 27.5 20.5 8.4 30 10.4 SE 35 44 19 24 1011.7 - 0.0
31/03:30pm 28.2 21.3 7.4 27 11.2 SE 33 43 18 23 1011.7 - 0.0
31/03:00pm 28.1 21.5 7.9 28 10.9 SE 32 41 17 22 1011.9 1011.8 0.0
31/02:30pm 27.7 21.2 8.1 29 10.6 SSE 32 37 17 20 1012.2 - 0.0
31/02:00pm 27.9 22.3 8.7 30 10.5 SE 28 37 15 20 1012.4 - 0.0
31/01:30pm 27.7 22.4 8.6 30 10.4 SE 26 35 14 19 1012.7 - 0.0
31/01:00pm 27.0 21.4 8.9 32 9.9 SE 28 37 15 20 1012.9 - 0.0
31/12:30pm 26.3 21.2 9.2 34 9.4 SE 26 35 14 19 1013.3 - 0.0
31/12:00pm 25.7 20.5 8.7 34 9.2 SE 26 37 14 20 1013.8 1013.7 0.0
31/11:30am 25.9 20.7 8.8 34 9.3 SSE 26 35 14 19 1013.9 - 0.0
31/11:00am 24.7 20.4 7.8 34 9.0 SSE 20 30 11 16 1014.0 - 0.0
31/10:30am 24.1 20.1 8.9 38 8.2 SSE 20 28 11 15 1014.3 - 0.0
31/10:00am 23.2 19.3 9.6 42 7.4 SSE 20 28 11 15 1014.1 - 0.0
31/09:30am 21.8 17.6 9.7 46 6.5 SSE 22 28 12 15 1014.0 - 0.0
31/09:00am 21.2 16.3 10.1 49 6.0 SSE 26 33 14 18 1014.1 1014.0 0.0
31/08:30am 20.1 15.9 9.9 52 5.5 SSE 22 30 12 16 1013.9 - 0.0
31/08:00am 18.8 15.0 9.8 56 4.8 SSE 20 26 11 14 1013.7 - 0.0
31/07:30am 17.3 13.2 10.0 62 3.9 SSE 22 28 12 15 1013.3 - 0.0
31/07:00am 16.7 13.3 10.5 67 3.3 SSE 19 28 10 15 1013.1 - 0.0
31/06:30am 16.4 14.1 11.6 73 2.6 SSE 15 19 8 10 1013.1 - 0.0
31/06:00am 16.9 13.7 11.8 72 2.8 SSE 20 28 11 15 1012.6 1012.5 0.0
31/05:30am 17.1 13.8 11.6 70 3.0 SSE 20 26 11 14 1012.5 - 0.0
31/05:00am 17.3 14.4 12.2 72 2.8 SSE 19 24 10 13 1012.4 - 0.0
31/04:30am 17.3 14.8 12.2 72 2.8 SSE 17 22 9 12 1012.4 - 0.0
31/04:00am 17.8 15.4 12.5 71 2.9 SSE 17 22 9 12 1012.2 - 0.0
31/03:30am 17.6 15.8 12.1 70 3.0 SSE 13 17 7 9 1012.3 - 0.0
31/03:00am 17.9 15.5 11.5 66 3.5 S 15 20 8 11 1012.3 1012.2 0.0
31/02:30am 18.0 16.3 11.3 65 3.6 S 11 17 6 9 1012.2 - 0.0
31/02:00am 18.3 15.9 11.4 64 3.8 SSW 15 20 8 11 1012.4 - 0.0
31/01:30am 18.6 15.0 11.7 64 3.8 S 22 32 12 17 1012.5 - 0.0
31/01:00am 18.6 13.1 11.9 65 3.7 SSE 32 46 17 25 1012.1 - 0.0
31/12:30am 19.2 13.2 12.2 64 3.9 SSE 35 50 19 27 1012.2 - 0.0
31/12:00am 19.6 12.4 11.9 61 4.3 SSE 41 54 22 29 1011.9 1011.8 0.0
 
Date/Time
CDT
Temp
°C
App
Temp
°C
Dew
Point
Rel
Hum
%
Delta-T
°C
Wind Press
QNH
hPa
Press
MSL
hPa
Rain
since 9 am
mm
Dir
 
Spd
km/h
Gust
km/h
Spd
kts
Gust
kts
30/11:30pm 20.4 13.5 10.2 52 5.5 SSE 37 50 20 27 1011.9 - 0.0
30/11:00pm 21.3 13.5 9.9 48 6.2 SSE 41 52 22 28 1012.0 - 0.0
30/10:30pm 22.4 15.5 8.9 42 7.2 SSE 35 46 19 25 1012.0 - 0.0
30/10:00pm 23.2 17.2 12.2 50 6.2 SSE 35 48 19 26 1012.0 - 0.0
30/09:31pm 24.2 17.2 6.9 33 9.0 S 33 52 18 28 1011.8 - 0.0
30/09:30pm 24.3 16.9 6.6 32 9.2 S 35 52 19 28 1011.7 - 0.0
30/09:00pm 25.0 16.7 4.2 26 10.3 S 37 48 20 26 1011.5 1011.4 0.0
30/08:30pm 25.4 17.5 4.5 26 10.5 S 35 46 19 25 1011.2 - 0.0
30/08:00pm 26.9 19.3 4.0 23 11.5 S 33 46 18 25 1010.7 - 0.0
30/07:30pm 28.4 20.5 4.6 22 12.2 S 35 43 19 23 1010.4 - 0.0
30/07:00pm 29.5 22.1 4.9 21 12.7 S 33 43 18 23 1010.2 - 0.0
30/06:30pm 29.9 22.0 4.5 20 13.1 SSE 35 46 19 25 1010.1 - 0.0
30/06:00pm 31.0 23.7 5.4 20 13.5 SSE 33 46 18 25 1010.1 1010.0 0.0
30/05:30pm 30.9 23.6 4.6 19 13.7 SSE 32 44 17 24 1010.0 - 0.0
30/05:00pm 31.4 24.4 4.2 18 14.1 SSE 30 39 16 21 1010.1 - 0.0
30/04:30pm 31.1 23.6 3.2 17 14.2 SSE 32 43 17 23 1010.2 - 0.0
30/04:00pm 31.7 24.8 2.8 16 14.6 SE 28 39 15 21 1010.5 - 0.0
30/03:30pm 31.8 25.6 2.0 15 14.9 SSE 24 35 13 19 1010.8 - 0.0
30/03:00pm 32.0 25.9 0.2 13 15.5 SE 22 35 12 19 1011.1 1011.0 0.0
30/02:30pm 31.6 26.4 -0.1 13 15.3 ESE 17 32 9 17 1011.6 - 0.0
30/02:00pm 30.6 25.0 1.0 15 14.4 ESE 20 33 11 18 1012.0 - 0.0
30/01:30pm 31.1 25.6 0.5 14 14.9 SSE 19 32 10 17 1012.4 - 0.0
30/01:00pm 30.0 24.3 0.6 15 14.2 SE 20 30 11 16 1012.8 - 0.0
30/12:30pm 29.2 23.6 -0.1 15 13.9 SE 19 28 10 15 1013.2 - 0.0
30/12:00pm 30.1 24.6 0.6 15 14.2 S 19 26 10 14 1013.5 1013.4 0.0
30/11:30am 29.5 25.1 2.7 18 13.4 ESE 15 22 8 12 1013.7 - 0.0
30/11:00am 27.6 23.6 2.6 20 12.3 SE 13 20 7 11 1013.9 - 0.0

Other Formats:

Comma delimited format used in spreadsheet applications
http://www.bom.gov.au/fwo/IDS60801/IDS60801.95666.axf

JavaScript Object Notation format (JSON) in row-major order
http://www.bom.gov.au/fwo/IDS60801/IDS60801.95666.json